createdAt,value
2018-06-18T00:00:51.747Z,17.53
2018-06-18T00:01:54.242Z,17.54
2018-06-18T00:02:52.240Z,17.53
2018-06-18T00:03:52.242Z,17.47
2018-06-18T00:04:52.242Z,17.55
2018-06-18T00:05:54.741Z,17.49
2018-06-18T00:06:52.743Z,17.53
2018-06-18T00:07:52.742Z,17.49
2018-06-18T00:08:52.743Z,17.54
2018-06-18T00:09:53.242Z,17.53
2018-06-18T00:10:54.686Z,17.49
2018-06-18T00:11:53.246Z,17.51
2018-06-18T00:12:53.242Z,17.54
2018-06-18T00:13:53.744Z,17.53
2018-06-18T00:14:53.744Z,17.57
2018-06-18T00:15:53.095Z,17.49
2018-06-18T00:16:53.740Z,17.54
2018-06-18T00:17:53.365Z,17.57
2018-06-18T00:18:53.467Z,17.55
2018-06-18T00:19:54.242Z,17.51
2018-06-18T00:20:54.242Z,17.43
2018-06-18T00:21:54.750Z,17.42
2018-06-18T00:22:53.967Z,17.53
2018-06-18T00:23:54.743Z,17.39
2018-06-18T00:24:54.742Z,17.39
2018-06-18T00:25:55.242Z,17.32
2018-06-18T00:26:55.242Z,17.36
2018-06-18T00:28:16.242Z,17.36
2018-06-18T00:28:55.242Z,17.28
2018-06-18T00:29:55.742Z,17.35
2018-06-18T00:30:55.740Z,17.30
2018-06-18T00:31:55.748Z,17.36
2018-06-18T00:32:55.752Z,17.30
2018-06-18T00:33:56.243Z,17.25
2018-06-18T00:34:56.243Z,17.09
2018-06-18T00:35:56.251Z,17.14
2018-06-18T00:36:56.276Z,16.99
2018-06-18T00:37:56.742Z,16.95
2018-06-18T00:38:56.742Z,16.82
2018-06-18T00:39:56.097Z,16.73
2018-06-18T00:40:56.743Z,16.66
2018-06-18T00:41:57.256Z,16.54
2018-06-18T00:42:57.242Z,16.41
2018-06-18T00:43:57.243Z,16.36
2018-06-18T00:44:57.244Z,16.32
2018-06-18T00:45:57.751Z,16.27
2018-06-18T00:46:59.741Z,16.17
2018-06-18T00:47:57.742Z,16.06
2018-06-18T00:48:57.743Z,16.07
2018-06-18T00:49:58.244Z,15.98
2018-06-18T00:50:57.466Z,15.96
2018-06-18T00:51:58.243Z,15.84
2018-06-18T00:53:01.675Z,15.86
2018-06-18T00:53:58.743Z,15.78
2018-06-18T00:54:58.743Z,15.81
2018-06-18T00:55:58.750Z,15.77
2018-06-18T00:56:58.742Z,15.77
2018-06-18T00:57:59.242Z,15.77
2018-06-18T00:58:59.244Z,15.67
2018-06-18T00:59:58.589Z,15.68
2018-06-18T01:01:20.262Z,15.73
2018-06-18T01:01:58.739Z,15.59
2018-06-18T01:02:58.851Z,15.60
2018-06-18T01:03:59.743Z,15.56
2018-06-18T01:04:59.742Z,15.58
2018-06-18T01:05:59.743Z,15.55
2018-06-18T01:07:00.242Z,15.59
2018-06-18T01:08:15.177Z,15.66
2018-06-18T01:09:00.242Z,15.58
2018-06-18T01:10:00.242Z,15.59
2018-06-18T01:11:00.742Z,15.60
2018-06-18T01:12:21.743Z,15.55
2018-06-18T01:13:00.750Z,15.52
2018-06-18T01:14:00.742Z,15.60
2018-06-18T01:15:22.242Z,15.56
2018-06-18T01:16:02.240Z,15.58
2018-06-18T01:17:00.592Z,15.58
2018-06-18T01:18:01.238Z,15.62
2018-06-18T01:19:01.742Z,15.58
2018-06-18T01:20:01.741Z,15.58
2018-06-18T01:21:22.742Z,15.59
2018-06-18T01:22:07.748Z,15.66
2018-06-18T01:23:23.245Z,15.66
2018-06-18T01:24:23.242Z,15.67
2018-06-18T01:25:09.239Z,15.66
2018-06-18T01:26:03.183Z,15.62
2018-06-18T01:27:04.753Z,15.67
2018-06-18T01:28:16.743Z,15.58
2018-06-18T01:29:23.742Z,15.64
2018-06-18T01:30:02.742Z,15.56
2018-06-18T01:31:03.746Z,15.62
2018-06-18T01:32:03.251Z,15.55
2018-06-18T01:33:17.242Z,15.55
2018-06-18T01:34:24.247Z,15.51
2018-06-18T01:35:24.242Z,15.52
2018-06-18T01:36:04.708Z,15.46
2018-06-18T01:37:03.752Z,15.58
2018-06-18T01:38:03.741Z,15.53
2018-06-18T01:39:24.741Z,15.52
2018-06-18T01:40:04.242Z,15.49
2018-06-18T01:41:25.242Z,15.56
2018-06-18T01:42:04.244Z,15.46
2018-06-18T01:43:05.241Z,15.52
2018-06-18T01:44:04.744Z,15.46
2018-06-18T01:45:04.742Z,15.49
2018-06-18T01:46:04.742Z,15.43
2018-06-18T01:47:04.742Z,15.37
2018-06-18T01:48:05.242Z,15.40
2018-06-18T01:49:05.242Z,15.40
2018-06-18T01:50:26.242Z,15.34
2018-06-18T01:51:05.242Z,15.28
2018-06-18T01:52:04.841Z,15.19
2018-06-18T01:53:05.745Z,15.01
2018-06-18T01:54:05.749Z,15.01
2018-06-18T01:55:05.742Z,15.03
2018-06-18T01:56:06.244Z,15.07
2018-06-18T01:57:06.249Z,15.03
2018-06-18T01:58:06.247Z,15.01
2018-06-18T01:59:05.716Z,14.91
2018-06-18T02:00:06.743Z,14.85
2018-06-18T02:01:06.742Z,14.80
2018-06-18T02:02:06.742Z,14.78
2018-06-18T02:03:06.749Z,14.82
2018-06-18T02:04:08.241Z,14.86
2018-06-18T02:05:28.241Z,14.86
2018-06-18T02:06:07.251Z,14.86
2018-06-18T02:07:07.242Z,14.83
2018-06-18T02:08:07.743Z,14.85
2018-06-18T02:09:07.742Z,14.85
2018-06-18T02:10:07.746Z,14.86
2018-06-18T02:11:07.742Z,14.85
2018-06-18T02:12:08.241Z,14.85
2018-06-18T02:13:07.466Z,14.83
2018-06-18T02:14:08.250Z,14.85
2018-06-18T02:15:29.258Z,14.83
2018-06-18T02:16:09.751Z,14.90
2018-06-18T02:17:08.782Z,14.85
2018-06-18T02:18:08.137Z,14.87
2018-06-18T02:19:08.740Z,14.91
2018-06-18T02:20:08.338Z,14.85
2018-06-18T02:21:09.242Z,14.97
2018-06-18T02:22:08.588Z,15.00
2018-06-18T02:23:09.237Z,15.00
2018-06-18T02:24:09.805Z,15.01
2018-06-18T02:25:11.174Z,15.04
2018-06-18T02:26:09.742Z,15.04
2018-06-18T02:27:09.742Z,15.12
2018-06-18T02:28:09.747Z,15.19
2018-06-18T02:29:12.674Z,15.15
2018-06-18T02:30:10.242Z,15.18
2018-06-18T02:31:10.243Z,15.33
2018-06-18T02:32:10.243Z,15.34
2018-06-18T02:33:31.742Z,15.34
2018-06-18T02:34:10.746Z,15.23
2018-06-18T02:35:10.742Z,15.31
2018-06-18T02:36:10.742Z,15.34
2018-06-18T02:37:11.252Z,15.27
2018-06-18T02:38:11.249Z,15.37
2018-06-18T02:39:11.242Z,15.34
2018-06-18T02:40:11.245Z,15.43
2018-06-18T02:41:11.747Z,15.34
2018-06-18T02:42:11.743Z,15.38
2018-06-18T02:43:11.742Z,15.41
2018-06-18T02:44:11.741Z,15.43
2018-06-18T02:45:12.242Z,15.44
2018-06-18T02:48:04.624Z,15.41
2018-06-18T02:48:43.631Z,15.38
2018-06-18T02:49:43.631Z,15.41
2018-06-18T02:52:16.376Z,15.28
2018-06-18T02:53:14.719Z,15.33
2018-06-18T02:54:15.385Z,15.23
2018-06-18T02:55:15.879Z,15.34
2018-06-18T02:56:15.889Z,15.27
2018-06-18T02:57:15.882Z,15.30
2018-06-18T02:58:15.879Z,15.37
2018-06-18T02:59:16.377Z,15.35
2018-06-18T03:02:08.757Z,15.34
2018-06-18T03:02:47.755Z,15.35
2018-06-18T03:03:47.754Z,15.28
2018-06-18T03:04:48.255Z,15.30
2018-06-18T03:05:48.258Z,15.31
2018-06-18T03:06:48.261Z,15.34
2018-06-18T03:07:48.264Z,15.27
2018-06-18T03:08:47.858Z,15.22
2018-06-18T03:09:48.754Z,15.19
2018-06-18T03:10:48.756Z,15.18
2018-06-18T03:11:48.760Z,15.25
2018-06-18T03:12:50.186Z,15.20
2018-06-18T03:13:49.754Z,15.19
2018-06-18T03:14:49.263Z,15.22
2018-06-18T03:15:49.254Z,15.19
2018-06-18T03:16:49.755Z,15.22
2018-06-18T03:17:49.764Z,15.22
2018-06-18T03:18:49.755Z,15.19
2018-06-18T03:19:49.757Z,15.23
2018-06-18T03:21:11.255Z,15.20
2018-06-18T03:22:11.260Z,15.19
2018-06-18T03:22:49.611Z,15.18
2018-06-18T03:23:50.254Z,15.11
2018-06-18T03:24:50.765Z,15.20
2018-06-18T03:25:50.000Z,15.20
2018-06-18T03:26:50.104Z,15.19
2018-06-18T03:27:52.754Z,15.23
2018-06-18T03:28:57.254Z,15.25
2018-06-18T03:29:51.256Z,15.20
2018-06-18T03:30:51.255Z,15.31
2018-06-18T03:31:52.185Z,15.33
2018-06-18T03:33:12.754Z,15.33
2018-06-18T03:33:51.755Z,15.33
2018-06-18T03:34:51.753Z,15.37
2018-06-18T03:35:51.758Z,15.40
2018-06-18T03:36:52.253Z,15.35
2018-06-18T03:37:52.259Z,15.43
2018-06-18T03:38:52.254Z,15.44
2018-06-18T03:39:52.253Z,15.40
2018-06-18T03:40:54.755Z,15.37
2018-06-18T03:41:52.754Z,15.40
2018-06-18T03:42:52.773Z,15.41
2018-06-18T03:43:52.753Z,15.38
2018-06-18T03:45:14.253Z,15.34
2018-06-18T03:45:53.255Z,15.28
2018-06-18T03:47:14.253Z,15.34
2018-06-18T03:47:53.259Z,15.34
2018-06-18T03:48:55.751Z,15.27
2018-06-18T03:49:52.974Z,15.31
2018-06-18T03:50:53.753Z,15.34
2018-06-18T03:51:53.758Z,15.43
2018-06-18T03:52:54.253Z,15.43
2018-06-18T03:53:54.258Z,15.41
2018-06-18T03:54:54.253Z,15.48
2018-06-18T03:55:55.256Z,15.46
2018-06-18T03:58:25.279Z,15.64
2018-06-18T03:59:26.001Z,15.58
2018-06-18T04:00:27.996Z,15.68
2018-06-18T04:01:32.496Z,15.66
2018-06-18T04:02:28.502Z,15.68
2018-06-18T04:03:26.502Z,15.77
2018-06-18T04:04:26.507Z,15.74
2018-06-18T04:05:27.012Z,15.84
2018-06-18T04:06:29.929Z,15.91
2018-06-18T04:07:26.997Z,15.85
2018-06-18T04:08:26.995Z,15.89
2018-06-18T04:09:28.495Z,15.91
2018-06-18T04:10:26.725Z,15.95
2018-06-18T04:11:27.496Z,15.95
2018-06-18T04:12:28.495Z,15.96
2018-06-18T04:13:27.996Z,15.88
2018-06-18T04:14:27.996Z,15.88
2018-06-18T04:15:27.996Z,15.88
2018-06-18T04:16:27.996Z,15.93
2018-06-18T04:17:28.497Z,16.01
2018-06-18T04:18:28.496Z,15.98
2018-06-18T04:19:28.550Z,15.98
2018-06-18T04:20:28.504Z,15.91
2018-06-18T04:21:50.001Z,16.03
2018-06-18T04:22:28.996Z,15.92
2018-06-18T04:23:29.995Z,16.07
2018-06-18T04:24:29.006Z,16.06
2018-06-18T04:25:29.496Z,15.99
2018-06-18T04:26:32.929Z,15.93
2018-06-18T04:27:29.496Z,16.04
2018-06-18T04:28:31.929Z,16.03
2018-06-18T04:29:50.995Z,16.08
2018-06-18T04:32:02.687Z,16.08
2018-06-18T04:33:02.717Z,16.22
2018-06-18T04:34:01.263Z,16.25
2018-06-18T04:35:01.750Z,16.33
2018-06-18T04:36:02.721Z,16.29
2018-06-18T04:37:01.071Z,16.33
2018-06-18T04:38:01.753Z,16.34
2018-06-18T04:39:01.841Z,16.36
2018-06-18T04:40:02.261Z,16.40
2018-06-18T04:41:23.255Z,16.44
2018-06-18T04:42:03.254Z,16.47
2018-06-18T04:43:08.255Z,16.52
2018-06-18T04:44:02.755Z,16.52
2018-06-18T04:45:08.755Z,16.45
2018-06-18T04:46:02.756Z,16.52
2018-06-18T04:47:02.755Z,16.51
2018-06-18T04:48:09.258Z,16.55
2018-06-18T04:49:04.687Z,16.52
2018-06-18T04:50:03.255Z,16.67
2018-06-18T04:51:02.742Z,16.57
2018-06-18T04:52:03.751Z,16.67
2018-06-18T04:53:02.982Z,16.70
2018-06-18T04:54:03.759Z,16.77
2018-06-18T04:55:03.754Z,16.81
2018-06-18T04:56:04.255Z,16.84
2018-06-18T04:57:25.291Z,16.84
2018-06-18T04:58:03.650Z,16.90
2018-06-18T04:59:04.255Z,16.87
2018-06-18T05:01:38.012Z,17.06
2018-06-18T05:02:36.018Z,17.00
2018-06-18T05:03:36.021Z,17.07
2018-06-18T05:04:36.517Z,17.06
2018-06-18T05:05:36.512Z,17.15
2018-06-18T05:06:36.517Z,17.17
2018-06-18T05:07:36.527Z,17.09
2018-06-18T05:10:08.285Z,17.25
2018-06-18T05:11:08.287Z,17.36
2018-06-18T05:12:08.294Z,17.27
2018-06-18T05:13:07.889Z,17.35
2018-06-18T05:14:08.785Z,17.36
2018-06-18T05:15:08.173Z,17.35
2018-06-18T05:16:08.788Z,17.40
2018-06-18T05:17:11.285Z,17.39
2018-06-18T05:18:08.508Z,17.46
2018-06-18T05:19:09.285Z,17.38
2018-06-18T05:20:08.767Z,17.45
2018-06-18T05:21:09.796Z,17.49
2018-06-18T05:22:09.786Z,17.49
2018-06-18T05:23:09.718Z,17.60
2018-06-18T05:24:09.786Z,17.57
2018-06-18T05:25:10.293Z,17.65
2018-06-18T05:26:10.286Z,17.66
2018-06-18T05:27:10.286Z,17.73
2018-06-18T05:28:10.286Z,17.66
2018-06-18T05:29:09.885Z,17.74
2018-06-18T05:30:10.787Z,17.76
2018-06-18T05:31:10.789Z,17.81
2018-06-18T05:32:10.790Z,17.83
2018-06-18T05:33:17.289Z,17.73
2018-06-18T05:34:32.287Z,17.77
2018-06-18T05:35:11.288Z,17.92
2018-06-18T05:36:12.754Z,17.81
2018-06-18T05:38:57.020Z,17.94
2018-06-18T05:39:43.022Z,17.95
2018-06-18T05:41:04.953Z,18.07
2018-06-18T05:41:43.529Z,18.09
2018-06-18T05:42:45.005Z,17.98
2018-06-18T05:43:57.554Z,18.07
2018-06-18T05:44:58.519Z,18.01
2018-06-18T05:46:04.521Z,18.05
2018-06-18T05:48:14.548Z,18.09
2018-06-18T05:49:36.286Z,18.09
2018-06-18T05:50:15.288Z,18.11
2018-06-18T05:52:47.046Z,18.26
2018-06-18T05:55:39.566Z,18.38
2018-06-18T05:56:18.563Z,18.41
2018-06-18T05:57:25.996Z,18.32
2018-06-18T05:59:50.304Z,18.25
2018-06-18T06:00:50.314Z,18.23
2018-06-18T06:01:52.313Z,18.36
2018-06-18T06:02:49.918Z,18.35
2018-06-18T06:03:50.812Z,18.56
2018-06-18T06:05:11.817Z,18.54
2018-06-18T06:05:50.809Z,18.54
2018-06-18T06:06:55.241Z,18.68
2018-06-18T06:07:56.741Z,18.69
2018-06-18T06:08:51.319Z,18.72
2018-06-18T06:09:51.314Z,18.72
2018-06-18T06:11:12.812Z,18.82
2018-06-18T06:11:51.807Z,18.89
2018-06-18T06:12:53.263Z,18.83
2018-06-18T06:13:51.256Z,18.96
2018-06-18T06:16:29.527Z,18.83
2018-06-18T06:17:23.513Z,18.91
2018-06-18T06:18:23.521Z,18.91
2018-06-18T06:20:55.282Z,18.83
2018-06-18T06:21:55.284Z,18.82
2018-06-18T06:22:55.290Z,18.69
2018-06-18T06:23:55.775Z,18.79
2018-06-18T06:26:27.671Z,18.78
2018-06-18T06:27:27.676Z,18.72
2018-06-18T06:28:27.689Z,18.79
2018-06-18T06:29:28.186Z,18.72
2018-06-18T06:30:28.171Z,18.75
2018-06-18T06:31:28.174Z,18.69
2018-06-18T06:32:28.169Z,18.74
2018-06-18T06:33:28.165Z,18.74
2018-06-18T06:34:49.666Z,18.71
2018-06-18T06:35:28.666Z,18.69
2018-06-18T06:36:28.666Z,18.75
2018-06-18T06:37:28.673Z,18.69
2018-06-18T06:38:49.278Z,18.69
2018-06-18T06:39:29.176Z,18.72
2018-06-18T06:40:29.249Z,18.76
2018-06-18T06:41:28.589Z,18.89
2018-06-18T06:42:29.658Z,18.89
2018-06-18T06:43:28.779Z,18.86
2018-06-18T06:44:50.666Z,18.78
2018-06-18T06:45:50.666Z,18.94
2018-06-18T06:46:33.598Z,18.94
2018-06-18T06:47:59.154Z,18.94
2018-06-18T06:48:36.170Z,18.91
2018-06-18T06:51:01.702Z,18.83
2018-06-18T06:52:07.711Z,18.89
2018-06-18T06:53:07.709Z,18.93
2018-06-18T06:54:01.311Z,18.96
2018-06-18T06:55:03.205Z,18.93
2018-06-18T06:56:02.236Z,18.93
2018-06-18T06:57:02.209Z,18.87
2018-06-18T06:59:33.954Z,18.94
2018-06-18T07:00:54.330Z,18.94
2018-06-18T07:01:54.416Z,18.99
2018-06-18T07:02:57.468Z,19.06
2018-06-18T07:03:34.466Z,19.05
2018-06-18T07:04:48.467Z,19.12
2018-06-18T07:05:55.467Z,19.15
2018-06-18T07:06:34.472Z,19.21
2018-06-18T07:09:05.516Z,19.30
2018-06-18T07:10:05.619Z,19.28
2018-06-18T07:11:05.738Z,19.27
2018-06-18T07:12:05.839Z,19.32
2018-06-18T07:13:06.752Z,19.30
2018-06-18T07:14:27.726Z,19.30
2018-06-18T07:15:06.727Z,19.32
2018-06-18T07:16:28.239Z,19.40
2018-06-18T07:17:07.226Z,19.31
2018-06-18T07:18:21.227Z,19.35
2018-06-18T07:19:07.228Z,19.43
2018-06-18T07:20:21.728Z,19.31
2018-06-18T07:21:07.730Z,19.45
2018-06-18T07:22:07.727Z,19.35
2018-06-18T07:23:07.728Z,19.49
2018-06-18T07:24:08.227Z,19.43
2018-06-18T07:25:08.229Z,19.52
2018-06-18T07:26:08.263Z,19.53
2018-06-18T07:27:08.232Z,19.52
2018-06-18T07:28:07.838Z,19.47
2018-06-18T07:30:40.211Z,19.47
2018-06-18T07:32:01.114Z,19.31
2018-06-18T07:32:40.106Z,19.35
2018-06-18T07:33:39.727Z,19.43
2018-06-18T07:34:44.037Z,19.46
2018-06-18T07:36:03.080Z,19.47
2018-06-18T07:38:12.210Z,19.60
2018-06-18T07:39:17.150Z,19.60
2018-06-18T07:40:12.221Z,19.58
2018-06-18T07:41:14.718Z,19.62
2018-06-18T07:42:12.718Z,19.65
2018-06-18T07:45:05.229Z,19.87
2018-06-18T07:45:47.171Z,19.87
2018-06-18T07:46:44.688Z,19.76
2018-06-18T07:48:07.738Z,19.76
2018-06-18T07:48:50.742Z,19.76
2018-06-18T07:49:44.745Z,19.76
2018-06-18T07:50:44.735Z,19.83
2018-06-18T07:51:44.288Z,19.90
2018-06-18T07:53:06.235Z,19.87
2018-06-18T07:53:47.234Z,19.95
2018-06-18T07:54:45.236Z,19.98
2018-06-18T07:55:45.235Z,20.00
2018-06-18T07:56:44.873Z,20.02
2018-06-18T07:57:51.735Z,20.02
2018-06-18T07:58:51.739Z,20.04
2018-06-18T08:00:12.744Z,20.07
2018-06-18T08:00:46.237Z,20.12
2018-06-18T08:01:46.235Z,20.01
2018-06-18T08:02:46.239Z,20.07
2018-06-18T08:03:46.246Z,19.98
2018-06-18T08:05:00.735Z,19.98
2018-06-18T08:05:46.737Z,19.89
2018-06-18T08:07:47.737Z,19.95
2018-06-18T08:10:17.763Z,20.01
2018-06-18T08:11:17.868Z,20.00
2018-06-18T08:12:18.518Z,20.02
2018-06-18T08:13:20.463Z,19.94
2018-06-18T08:14:18.989Z,19.89
2018-06-18T08:15:20.989Z,20.05
2018-06-18T08:16:20.444Z,20.04
2018-06-18T08:18:49.998Z,20.12
2018-06-18T08:19:50.711Z,20.04
2018-06-18T08:21:12.716Z,20.19
2018-06-18T08:21:53.216Z,20.22
2018-06-18T08:22:50.442Z,20.25
2018-06-18T08:23:50.687Z,20.35
2018-06-18T08:24:51.211Z,20.34
2018-06-18T08:25:50.686Z,20.42
2018-06-18T08:26:51.720Z,20.40
2018-06-18T08:27:57.722Z,20.23
2018-06-18T08:28:51.711Z,20.20
2018-06-18T08:29:51.718Z,20.23
2018-06-18T08:34:15.897Z,20.10
2018-06-18T08:34:58.405Z,20.12
2018-06-18T08:35:54.381Z,20.05
2018-06-18T08:36:54.482Z,20.20
2018-06-18T08:38:16.407Z,20.10
2018-06-18T08:39:16.407Z,20.12
2018-06-18T08:39:55.411Z,20.07
2018-06-18T08:41:16.407Z,20.02
2018-06-18T08:42:09.905Z,20.26
2018-06-18T08:42:57.904Z,20.23
2018-06-18T08:43:55.907Z,20.26
2018-06-18T08:45:16.905Z,20.33
2018-06-18T08:45:55.518Z,20.25
2018-06-18T08:46:58.404Z,20.44
2018-06-18T08:48:17.406Z,20.33
2018-06-18T08:48:56.406Z,20.38
2018-06-18T08:49:58.907Z,20.40
2018-06-18T08:51:10.906Z,20.30
2018-06-18T08:51:56.905Z,20.35
2018-06-18T08:52:56.905Z,20.46
2018-06-18T08:53:57.405Z,20.44
2018-06-18T08:54:57.406Z,20.54
2018-06-18T08:55:57.405Z,20.51
2018-06-18T08:56:57.417Z,20.53
2018-06-18T08:57:57.907Z,20.53
2018-06-18T09:00:35.804Z,20.61
2018-06-18T09:01:29.812Z,20.68
2018-06-18T09:02:29.811Z,20.71
2018-06-18T09:03:29.287Z,20.85
2018-06-18T09:06:03.579Z,21.06
2018-06-18T09:07:01.559Z,21.16
2018-06-18T09:08:03.561Z,21.33
2018-06-18T09:09:25.059Z,21.33
2018-06-18T09:10:08.056Z,21.45
2018-06-18T09:11:04.065Z,21.56
2018-06-18T09:12:02.059Z,21.64
2018-06-18T09:13:10.019Z,21.53
2018-06-18T09:14:29.559Z,21.58
2018-06-18T09:15:08.560Z,21.52
2018-06-18T09:16:02.124Z,21.56
2018-06-18T09:17:02.158Z,21.66
2018-06-18T09:18:17.062Z,21.68
2018-06-18T09:19:02.413Z,21.71
2018-06-18T09:20:05.060Z,21.83
2018-06-18T09:21:03.599Z,21.93
2018-06-18T09:22:05.560Z,22.05
2018-06-18T09:23:03.558Z,22.11
2018-06-18T09:24:03.038Z,22.31
2018-06-18T09:25:31.060Z,22.42
2018-06-18T09:26:03.300Z,22.49
2018-06-18T09:27:03.422Z,22.26
2018-06-18T09:28:03.538Z,22.30
2018-06-18T09:29:04.571Z,22.20
2018-06-18T09:30:03.792Z,22.26
2018-06-18T09:31:04.559Z,22.41
2018-06-18T09:32:04.077Z,22.45
2018-06-18T09:33:26.060Z,22.57
2018-06-18T09:35:36.509Z,22.72
2018-06-18T09:36:38.458Z,22.66
2018-06-18T09:37:36.457Z,22.70
2018-06-18T09:38:36.084Z,22.78
2018-06-18T09:39:42.958Z,22.79
2018-06-18T09:40:36.955Z,22.85
2018-06-18T09:41:36.957Z,23.09
2018-06-18T09:42:37.464Z,22.84
2018-06-18T09:43:44.889Z,22.88
2018-06-18T09:44:36.835Z,22.91
2018-06-18T09:45:36.940Z,22.99
2018-06-18T09:46:37.976Z,23.04
2018-06-18T09:49:15.351Z,22.94
2018-06-18T09:50:09.521Z,23.09
2018-06-18T09:51:09.852Z,23.06
2018-06-18T09:52:23.851Z,23.11
2018-06-18T09:54:41.243Z,23.04
2018-06-18T09:55:41.268Z,23.07
2018-06-18T09:57:02.241Z,23.14
2018-06-18T09:58:04.718Z,23.03
2018-06-18T09:59:02.746Z,23.11
2018-06-18T09:59:41.746Z,23.07
2018-06-18T10:00:44.255Z,23.11
2018-06-18T10:04:44.201Z,23.21
2018-06-18T10:05:46.944Z,23.22
2018-06-18T10:06:44.415Z,23.37
2018-06-18T10:10:54.121Z,23.34
2018-06-18T10:11:47.475Z,23.26
2018-06-18T10:13:09.163Z,23.23
2018-06-18T10:16:50.535Z,23.15
2018-06-18T10:18:14.259Z,23.21
2018-06-18T10:18:51.251Z,23.07
2018-06-18T10:19:50.856Z,22.88
2018-06-18T10:20:53.684Z,22.88
2018-06-18T10:21:51.751Z,22.76
2018-06-18T10:22:53.253Z,22.72
2018-06-18T10:23:54.250Z,22.66
2018-06-18T10:24:58.072Z,22.67
2018-06-18T10:25:52.251Z,22.70
2018-06-18T10:26:53.268Z,22.63
2018-06-18T10:28:15.765Z,22.56
2018-06-18T10:28:52.747Z,22.60
2018-06-18T10:31:25.695Z,22.61
2018-06-18T10:32:45.263Z,22.61
2018-06-18T10:33:45.266Z,22.42
2018-06-18T10:34:23.874Z,22.54
2018-06-18T10:36:55.430Z,22.52
2018-06-18T10:38:16.524Z,22.60
2018-06-18T10:39:10.637Z,22.52
2018-06-18T10:41:27.913Z,22.42
2018-06-18T10:42:48.918Z,22.31
2018-06-18T10:43:27.913Z,22.51
2018-06-18T10:44:27.615Z,22.38
2018-06-18T10:45:30.411Z,22.36
2018-06-18T10:47:59.065Z,22.21
2018-06-18T10:48:59.820Z,22.24
2018-06-18T10:50:00.307Z,22.33
2018-06-18T10:51:00.310Z,22.54
2018-06-18T10:51:59.539Z,22.60
2018-06-18T10:53:00.311Z,22.84
2018-06-18T10:54:00.310Z,22.84
2018-06-18T10:55:00.812Z,22.82
2018-06-18T10:56:00.869Z,22.99
2018-06-18T10:57:00.890Z,23.11
2018-06-18T10:58:00.809Z,23.00
2018-06-18T10:59:00.812Z,22.96
2018-06-18T11:00:07.698Z,22.89
2018-06-18T11:02:34.173Z,22.41
2018-06-18T11:03:34.729Z,22.39
2018-06-18T11:04:32.749Z,22.36
2018-06-18T11:07:51.006Z,22.44
2018-06-18T11:09:59.383Z,22.35
2018-06-18T11:11:20.394Z,22.41
2018-06-18T11:11:59.891Z,22.52
2018-06-18T11:13:20.890Z,22.60
2018-06-18T11:13:59.891Z,22.61
2018-06-18T11:14:59.903Z,22.74
2018-06-18T11:17:45.684Z,22.82
2018-06-18T11:18:45.688Z,22.81
2018-06-18T11:19:31.681Z,22.93
2018-06-18T11:20:35.112Z,22.93
2018-06-18T11:23:17.524Z,23.12
2018-06-18T11:24:09.530Z,23.16
2018-06-18T11:25:05.496Z,23.23
2018-06-18T11:26:18.105Z,23.29
2018-06-18T11:27:04.082Z,23.39
2018-06-18T11:28:04.047Z,23.54
2018-06-18T11:29:04.027Z,23.54
2018-06-18T11:30:04.577Z,23.49
2018-06-18T11:32:36.889Z,23.37
2018-06-18T11:33:36.386Z,23.38
2018-06-18T11:34:38.354Z,23.44
2018-06-18T11:35:56.922Z,23.47
2018-06-18T11:36:38.426Z,23.42
2018-06-18T11:39:28.838Z,23.14
2018-06-18T11:41:41.873Z,22.67
2018-06-18T11:42:39.841Z,22.70
2018-06-18T11:43:39.198Z,22.66
2018-06-18T11:44:41.841Z,22.75
2018-06-18T11:47:13.565Z,22.70
2018-06-18T11:48:11.034Z,22.64
2018-06-18T11:50:43.233Z,22.74
2018-06-18T11:51:43.717Z,22.74
2018-06-18T11:52:43.479Z,22.81
2018-06-18T11:54:04.743Z,22.88
2018-06-18T11:54:49.742Z,22.86
2018-06-18T11:56:03.986Z,22.88
2018-06-18T11:56:43.745Z,22.79
2018-06-18T11:57:43.945Z,22.78
2018-06-18T11:58:44.243Z,22.75
2018-06-18T12:00:10.676Z,22.81
2018-06-18T12:03:46.474Z,23.09
2018-06-18T12:05:08.183Z,23.18
2018-06-18T12:05:47.175Z,23.29
2018-06-18T12:07:08.723Z,23.38
2018-06-18T12:08:07.919Z,23.54
2018-06-18T12:08:47.687Z,23.56
2018-06-18T12:09:47.756Z,23.74
2018-06-18T12:12:40.436Z,23.89
2018-06-18T12:13:19.442Z,23.74
2018-06-18T12:14:19.443Z,23.77
2018-06-18T12:18:17.285Z,23.87
2018-06-18T12:19:02.410Z,23.93
2018-06-18T12:20:03.279Z,23.89
2018-06-18T12:21:03.280Z,23.86
2018-06-18T12:22:03.282Z,23.82
2018-06-18T12:23:03.823Z,23.68
2018-06-18T12:25:56.195Z,23.67
2018-06-18T12:26:35.201Z,23.67
2018-06-18T12:27:35.195Z,23.54
2018-06-18T12:31:38.387Z,23.57
2018-06-18T12:35:43.218Z,23.50
2018-06-18T12:36:45.225Z,23.54
2018-06-18T12:37:43.740Z,23.47
2018-06-18T12:38:43.725Z,23.44
2018-06-18T12:39:43.726Z,23.39
2018-06-18T12:40:43.204Z,23.26
2018-06-18T12:41:43.749Z,23.34
2018-06-18T12:43:05.236Z,23.34
2018-06-18T12:43:43.591Z,23.31
2018-06-18T12:44:44.226Z,23.44
2018-06-18T12:45:43.829Z,23.44
2018-06-18T12:46:44.018Z,23.52
2018-06-18T12:47:44.784Z,23.45
2018-06-18T12:48:44.729Z,23.57
2018-06-18T12:49:45.228Z,23.74
2018-06-18T12:51:06.226Z,23.79
2018-06-18T12:51:44.584Z,23.92
2018-06-18T12:53:06.263Z,23.99
2018-06-18T12:53:44.843Z,23.96
2018-06-18T12:55:05.942Z,24.05
2018-06-18T12:56:06.727Z,24.05
2018-06-18T12:56:45.726Z,24.09
2018-06-18T12:58:08.159Z,24.18
2018-06-18T12:58:45.472Z,24.21
2018-06-18T13:00:00.235Z,24.08
2018-06-18T13:00:46.227Z,24.18
2018-06-18T13:03:17.291Z,24.36
2018-06-18T13:04:18.002Z,24.52
2018-06-18T13:05:18.002Z,24.70
2018-06-18T13:06:38.588Z,24.87
2018-06-18T13:08:49.856Z,24.89
2018-06-18T13:09:49.865Z,24.92
2018-06-18T13:10:49.346Z,24.67
2018-06-18T13:12:11.363Z,24.71
2018-06-18T13:12:50.363Z,24.39
2018-06-18T13:13:50.361Z,24.34
2018-06-18T13:14:49.848Z,24.29
2018-06-18T13:15:50.863Z,24.34
2018-06-18T13:16:50.868Z,24.30
2018-06-18T13:17:50.863Z,24.27
2018-06-18T13:18:50.864Z,24.26
2018-06-18T13:19:50.470Z,24.14
2018-06-18T13:20:51.363Z,24.12
2018-06-18T13:21:50.719Z,24.11
2018-06-18T13:22:53.295Z,23.90
2018-06-18T13:23:51.863Z,23.62
2018-06-18T13:25:14.864Z,23.59
2018-06-18T13:25:51.864Z,23.62
2018-06-18T13:26:51.865Z,23.64
2018-06-18T13:28:13.364Z,23.72
2018-06-18T13:28:51.592Z,23.75
2018-06-18T13:30:12.676Z,23.81
2018-06-18T13:30:54.362Z,23.90
2018-06-18T13:33:24.023Z,23.84
2018-06-18T13:34:25.464Z,23.84
2018-06-18T13:35:24.040Z,23.87
2018-06-18T13:36:23.642Z,23.89
2018-06-18T13:37:32.962Z,23.82
2018-06-18T13:38:24.566Z,23.87
2018-06-18T13:39:24.530Z,23.86
2018-06-18T13:40:46.029Z,23.86
2018-06-18T13:43:17.190Z,23.67
2018-06-18T13:43:56.296Z,23.71
2018-06-18T13:44:56.926Z,23.67
2018-06-18T13:45:59.426Z,23.52
2018-06-18T13:46:56.763Z,23.52
2018-06-18T13:47:57.427Z,23.59
2018-06-18T13:48:56.941Z,23.77
2018-06-18T13:50:18.926Z,23.89
2018-06-18T13:51:03.922Z,23.94
2018-06-18T13:52:03.927Z,24.19
2018-06-18T13:53:18.388Z,24.16
2018-06-18T13:54:19.426Z,24.42
2018-06-18T13:55:18.640Z,24.51
2018-06-18T13:55:58.432Z,24.61
2018-06-18T13:56:58.428Z,24.66
2018-06-18T13:58:12.937Z,24.94
2018-06-18T13:58:58.930Z,25.04
2018-06-18T14:00:12.959Z,24.94
2018-06-18T14:01:19.928Z,24.77
2018-06-18T14:02:05.426Z,24.89
2018-06-18T14:02:59.428Z,24.82
2018-06-18T14:04:21.866Z,24.82
2018-06-18T14:04:59.428Z,24.82
2018-06-18T14:06:22.932Z,24.64
2018-06-18T14:13:05.958Z,25.36
2018-06-18T14:21:42.881Z,25.09
2018-06-18T14:26:48.754Z,24.77
2018-06-18T14:28:07.778Z,24.77
2018-06-18T14:29:10.255Z,24.74
2018-06-18T14:30:08.261Z,24.59
2018-06-18T14:30:47.254Z,24.45
2018-06-18T14:33:20.905Z,24.37
2018-06-18T14:36:10.681Z,24.21
2018-06-18T14:38:48.942Z,24.63
2018-06-18T14:44:33.927Z,25.20
2018-06-18T14:45:25.982Z,25.07
2018-06-18T14:46:39.983Z,24.99
2018-06-18T14:48:58.556Z,24.86
2018-06-18T14:50:05.086Z,24.93
2018-06-18T14:55:00.825Z,25.36
2018-06-18T14:56:00.888Z,25.42
2018-06-18T14:57:00.833Z,25.59
2018-06-18T14:58:21.422Z,25.45
2018-06-18T14:59:07.334Z,25.63
2018-06-18T15:01:51.054Z,25.75
2018-06-18T15:03:05.026Z,25.76
2018-06-18T15:03:51.171Z,25.78
2018-06-18T15:04:51.536Z,25.66
2018-06-18T15:05:50.772Z,25.46
2018-06-18T15:07:13.957Z,25.60
2018-06-18T15:07:51.526Z,25.81